Time;durP1;ratioP1;P1;durP2;ratioP2;P2;SDS_P1;SDS_P2;PMS_P1;PMS_P2;Temp;Humidity;BMP_temperature;BMP_pressure;BME280_temperature;BME280_humidity;BME280_pressure;Samples;Min_cycle;Max_cycle;Signal;HPM_P1;HPM_P2
2023/10/10 00:02:19;;;;;;;;;;;;;;;17.13;45.92;101020.50;4958295;29;1229;-51
2023/10/10 00:04:47;;;;;;;;;;;;;;;17.01;45.39;101015.28;4960162;29;1097;-50
2023/10/10 00:07:14;;;;;;;;;;;;;;;17.88;45.72;101011.78;4946522;29;1906;-51
2023/10/10 00:09:46;;;;;;;;;;;;;;;17.53;46.22;101016.19;4959337;29;1100;-51
2023/10/10 00:12:18;;;;;;;;;;;;;;;17.21;46.00;101005.44;4959940;29;1177;-50
2023/10/10 00:14:50;;;;;;;;;;;;;;;17.31;45.96;100999.94;4958907;29;1033;-50
2023/10/10 00:17:15;;;;;;;;;;;;;;;17.59;46.27;100984.81;4959708;29;1056;-48
2023/10/10 00:19:54;;;;;;;;;;;;;;;17.21;46.03;100992.50;4950775;29;1129;-50
2023/10/10 00:22:26;;;;;;;;;;;;;;;17.05;45.69;100979.84;4959207;28;1081;-48
2023/10/10 00:24:52;;;;;;;;;;;;;;;17.83;46.05;100977.94;4959097;28;1972;-48
2023/10/10 00:27:17;;;;;;;;;;;;;;;17.39;46.56;100985.66;4959269;29;1906;-51
2023/10/10 00:29:43;;;;;;;;;;;;;;;17.19;45.74;100982.88;4959429;29;1037;-48
2023/10/10 00:32:16;;;;;;;;;;;;;;;17.00;45.25;100977.91;4955508;29;1133;-46
2023/10/10 00:34:47;;;;;;;;;;;;;;;16.97;44.76;100978.47;4958005;29;1413;-48
2023/10/10 00:37:13;;;;;;;;;;;;;;;17.66;45.32;100979.06;4959465;29;1173;-53
2023/10/10 00:39:38;;;;;;;;;;;;;;;17.71;46.33;100981.81;4951618;29;1085;-50
2023/10/10 00:42:05;;;;;;;;;;;;;;;17.28;46.04;100973.00;4952426;29;994;-50
2023/10/10 00:44:37;;;;;;;;;;;;;;;17.13;45.59;100975.75;4958705;29;1090;-49
2023/10/10 00:47:03;;;;;;;;;;;;;;;18.15;45.79;100968.56;4958919;29;1910;-48
2023/10/10 00:49:31;;;;;;;;;;;;;;;17.38;46.52;100961.19;4957536;29;1193;-49
2023/10/10 00:51:59;;;;;;;;;;;;;;;17.21;46.53;100964.22;4959030;29;1025;-49
2023/10/10 00:56:55;;;;;;;;;;;;;;;17.30;46.44;100962.56;4954534;29;882;-49
2023/10/10 00:59:35;;;;;;;;;;;;;;;17.08;45.77;100947.16;4958788;29;1077;-51
2023/10/10 01:02:03;;;;;;;;;;;;;;;17.04;44.90;100954.28;4958758;29;1087;-49
2023/10/10 01:04:35;;;;;;;;;;;;;;;17.47;45.43;100961.47;4958934;29;1122;-49
2023/10/10 01:07:06;;;;;;;;;;;;;;;17.40;45.85;100965.31;4955574;29;1910;-46
2023/10/10 01:09:33;;;;;;;;;;;;;;;17.13;45.54;100959.25;4950244;29;1129;-50
2023/10/10 01:12:00;;;;;;;;;;;;;;;16.93;45.38;100949.88;4958095;29;982;-48
2023/10/10 01:14:26;;;;;;;;;;;;;;;18.37;45.41;100949.75;4958418;29;1094;-47
2023/10/10 01:16:57;;;;;;;;;;;;;;;17.49;46.21;100951.00;4945785;29;1097;-47
2023/10/10 01:19:28;;;;;;;;;;;;;;;17.15;46.28;100946.88;4949860;29;1042;-47
2023/10/10 01:22:00;;;;;;;;;;;;;;;17.41;46.23;100949.66;4957843;29;1037;-47
2023/10/10 01:24:26;;;;;;;;;;;;;;;17.65;46.50;100955.41;4958510;29;1943;-50
2023/10/10 01:26:52;;;;;;;;;;;;;;;17.24;46.23;100949.91;4958308;29;1919;-51
2023/10/10 01:29:25;;;;;;;;;;;;;;;17.07;45.66;100945.50;4957861;29;994;-49
2023/10/10 01:31:54;;;;;;;;;;;;;;;17.18;45.65;100961.97;4939366;29;967;-47
2023/10/10 01:34:33;;;;;;;;;;;;;;;17.62;46.35;100958.72;4952701;29;1181;-49
2023/10/10 01:37:13;;;;;;;;;;;;;;;17.20;46.13;100957.06;4957755;28;1045;-49
2023/10/10 01:39:48;;;;;;;;;;;;;;;17.84;46.25;100952.91;4956618;29;1154;-49
2023/10/10 01:42:16;;;;;;;;;;;;;;;17.63;46.73;100954.88;4958021;29;1028;-50
2023/10/10 01:44:41;;;;;;;;;;;;;;;17.31;46.16;100961.47;4951736;29;946;-51
2023/10/10 01:47:19;;;;;;;;;;;;;;;17.12;45.69;100952.09;4972479;28;1981;-48
2023/10/10 01:49:46;;;;;;;;;;;;;;;17.06;45.16;100949.34;4958109;29;1002;-46
2023/10/10 01:52:17;;;;;;;;;;;;;;;17.98;45.49;100953.19;4958455;29;1145;-49
2023/10/10 01:54:45;;;;;;;;;;;;;;;17.25;46.19;100951.53;4958211;29;2149;-48
2023/10/10 01:57:21;;;;;;;;;;;;;;;16.99;46.09;100958.94;4957440;29;847;-50
2023/10/10 01:59:46;;;;;;;;;;;;;;;16.95;45.23;100958.66;4956755;29;1226;-48
2023/10/10 02:02:16;;;;;;;;;;;;;;;18.07;45.63;100968.00;4956623;29;1237;-48
2023/10/10 02:04:42;;;;;;;;;;;;;;;17.33;46.60;100967.50;4958072;29;1153;-49
2023/10/10 02:07:14;;;;;;;;;;;;;;;17.48;46.34;100965.88;4957924;29;1902;-49
2023/10/10 02:09:40;;;;;;;;;;;;;;;17.93;46.50;100961.44;4957694;29;910;-49
2023/10/10 02:12:14;;;;;;;;;;;;;;;17.40;46.41;100970.81;4957487;29;1061;-49
2023/10/10 02:14:43;;;;;;;;;;;;;;;17.23;45.98;100964.75;4956117;29;1030;-50
2023/10/10 02:17:20;;;;;;;;;;;;;;;17.61;46.39;100971.66;4956198;29;2242;-47
2023/10/10 02:19:53;;;;;;;;;;;;;;;17.52;46.71;100969.72;4956064;29;998;-48
2023/10/10 02:27:57;;;;;;;;;;;;;;;18.09;45.91;100954.81;4957720;29;1978;-52
2023/10/10 02:35:56;;;;;;;;;;;;;;;18.06;46.00;100955.38;4957644;29;1006;-49
2023/10/10 02:38:31;;;;;;;;;;;;;;;17.60;46.40;100963.69;4957581;29;1065;-49
2023/10/10 02:41:14;;;;;;;;;;;;;;;17.22;46.06;100958.44;4953173;29;1162;-49
2023/10/10 02:43:46;;;;;;;;;;;;;;;17.06;45.35;100957.56;4953822;29;1047;-49
2023/10/10 02:46:17;;;;;;;;;;;;;;;18.05;46.05;100956.47;4949459;29;1018;-49
2023/10/10 02:48:44;;;;;;;;;;;;;;;17.34;46.45;100958.16;4973152;28;1977;-49
2023/10/10 02:51:15;;;;;;;;;;;;;;;17.09;45.98;100943.28;4960939;29;1186;-50
2023/10/10 02:53:46;;;;;;;;;;;;;;;17.32;46.18;100957.63;4959731;29;1953;-48
2023/10/10 02:56:16;;;;;;;;;;;;;;;17.61;46.28;100954.31;4959663;29;1154;-49
2023/10/10 02:58:43;;;;;;;;;;;;;;;17.14;46.62;100953.47;4959778;29;1204;-49
2023/10/10 03:01:19;;;;;;;;;;;;;;;17.04;45.86;100940.56;4959622;29;1455;-49
2023/10/10 03:03:45;;;;;;;;;;;;;;;17.88;45.80;100947.66;4959747;29;1210;-50
2023/10/10 03:06:11;;;;;;;;;;;;;;;17.60;46.31;100944.44;4961117;29;1139;-50
2023/10/10 03:08:51;;;;;;;;;;;;;;;17.27;46.03;100944.69;4959440;29;1919;-49
2023/10/10 03:11:35;;;;;;;;;;;;;;;17.04;45.63;100945.22;4959334;29;1146;-45
2023/10/10 03:14:07;;;;;;;;;;;;;;;17.12;45.41;100952.09;4959480;29;1136;-48
2023/10/10 03:16:45;;;;;;;;;;;;;;;17.62;46.45;100944.97;4960807;29;1113;-49
2023/10/10 03:24:50;;;;;;;;;;;;;;;18.32;45.63;100954.47;4959104;29;2095;-48
2023/10/10 03:29:50;;;;;;;;;;;;;;;17.23;45.93;100942.75;4960625;29;1157;-49
2023/10/10 03:32:34;;;;;;;;;;;;;;;17.07;45.35;100953.75;4959768;28;1878;-46
2023/10/10 03:35:19;;;;;;;;;;;;;;;17.83;45.65;100955.94;4954294;29;1022;-52
2023/10/10 03:37:54;;;;;;;;;;;;;;;17.28;46.61;100957.34;4959391;29;1283;-50
2023/10/10 03:41:21;;;;;;;;;;;;;;;17.12;46.00;100963.09;4960432;28;1154;-58
2023/10/10 05:24:43;;;;;;;;;;;;;;;16.71;50.39;101044.25;4954605;29;1788;-49
2023/10/10 05:27:10;;;;;;;;;;;;;;;16.70;50.12;101045.31;4957287;29;1918;-48
2023/10/10 05:29:36;;;;;;;;;;;;;;;16.57;50.62;101046.66;4947060;29;1191;-50
2023/10/10 05:32:08;;;;;;;;;;;;;;;17.62;48.34;101052.19;4945066;29;1107;-47
2023/10/10 05:34:34;;;;;;;;;;;;;;;17.27;49.06;101048.31;4952948;29;943;-45
2023/10/10 05:36:59;;;;;;;;;;;;;;;16.91;50.14;101051.78;4957791;29;1101;-50
2023/10/10 05:39:26;;;;;;;;;;;;;;;16.79;50.44;101055.78;4957953;29;1069;-48
2023/10/10 05:41:54;;;;;;;;;;;;;;;16.65;50.57;101048.06;4957930;29;1057;-49
2023/10/10 05:44:21;;;;;;;;;;;;;;;17.28;49.33;101052.72;4956886;28;1240;-48
2023/10/10 05:46:47;;;;;;;;;;;;;;;17.44;48.85;101054.38;4957193;29;1989;-51
2023/10/10 05:49:13;;;;;;;;;;;;;;;17.05;49.92;101045.78;4957713;29;1026;-47
2023/10/10 05:51:40;;;;;;;;;;;;;;;16.87;50.07;101058.03;4952268;29;1185;-43
2023/10/10 05:54:07;;;;;;;;;;;;;;;16.73;50.53;101063.19;4938751;29;2426;-44
2023/10/10 05:56:34;;;;;;;;;;;;;;;16.66;50.69;101066.19;4957423;29;1248;-41
2023/10/10 05:59:00;;;;;;;;;;;;;;;17.78;48.30;101059.38;4957537;29;836;-45
2023/10/10 06:01:26;;;;;;;;;;;;;;;17.16;49.62;101069.44;4944723;29;1229;-44
2023/10/10 06:03:51;;;;;;;;;;;;;;;16.89;50.30;101081.44;4944948;29;1199;-48
2023/10/10 06:06:18;;;;;;;;;;;;;;;16.75;50.57;101080.25;4952136;29;1065;-48
2023/10/10 06:08:44;;;;;;;;;;;;;;;16.68;50.65;101091.47;4951345;29;1907;-47
2023/10/10 06:11:13;;;;;;;;;;;;;;;17.36;49.28;101095.31;4944692;29;1505;-50
2023/10/10 06:13:40;;;;;;;;;;;;;;;17.43;48.69;101093.13;4957156;29;1053;-45
2023/10/10 06:16:05;;;;;;;;;;;;;;;17.05;49.74;101093.28;4957168;29;1147;-49
2023/10/10 06:18:31;;;;;;;;;;;;;;;16.85;50.33;101093.19;4944792;29;993;-47
2023/10/10 06:21:02;;;;;;;;;;;;;;;16.74;50.30;101098.63;4957658;29;1036;-47
2023/10/10 06:23:28;;;;;;;;;;;;;;;17.43;49.13;101104.97;4942090;29;2299;-52
2023/10/10 06:25:58;;;;;;;;;;;;;;;17.42;48.78;101103.31;4961683;29;1049;-47
2023/10/10 06:28:25;;;;;;;;;;;;;;;16.98;49.88;101111.13;4948204;29;1981;-43
2023/10/10 06:30:54;;;;;;;;;;;;;;;16.85;50.12;101101.44;4952922;29;1058;-48
2023/10/10 06:33:33;;;;;;;;;;;;;;;16.69;50.43;101109.59;4956745;29;1014;-47
2023/10/10 06:36:32;;;;;;;;;;;;;;;16.60;50.69;101116.66;4961245;29;1092;-43
2023/10/10 06:41:42;;;;;;;;;;;;;;;17.15;49.35;101110.91;4954743;29;1090;-48
2023/10/10 06:44:13;;;;;;;;;;;;;;;16.91;50.18;101105.88;4952589;29;1228;-45
2023/10/10 06:46:40;;;;;;;;;;;;;;;16.76;50.43;101117.59;4951215;29;1967;-47
2023/10/10 06:49:11;;;;;;;;;;;;;;;16.76;50.47;101123.09;4960923;29;1107;-45
2023/10/10 06:51:40;;;;;;;;;;;;;;;17.80;48.01;101125.09;4948048;28;1030;-46
2023/10/10 06:54:09;;;;;;;;;;;;;;;17.16;49.70;101121.63;4951917;29;2318;-43
2023/10/10 06:56:44;;;;;;;;;;;;;;;16.89;50.07;101114.38;4960960;29;1077;-48
2023/10/10 06:59:09;;;;;;;;;;;;;;;16.81;50.49;101109.38;4947265;29;1064;-45
2023/10/10 07:01:35;;;;;;;;;;;;;;;16.74;50.36;101115.09;4960320;29;1195;-46
2023/10/10 07:04:04;;;;;;;;;;;;;;;17.32;49.35;101117.03;4947534;29;968;-49
2023/10/10 07:06:29;;;;;;;;;;;;;;;17.49;48.75;101115.97;4960276;29;1058;-46
2023/10/10 07:11:39;;;;;;;;;;;;;;;16.83;50.23;101115.44;4957529;29;935;-48
2023/10/10 07:14:08;;;;;;;;;;;;;;;16.73;50.44;101116.22;4958839;29;1189;-48
2023/10/10 07:16:33;;;;;;;;;;;;;;;16.67;50.48;101114.50;4959215;29;1280;-46
2023/10/10 07:19:17;;;;;;;;;;;;;;;16.94;50.38;101121.81;4959866;29;1009;-45
2023/10/10 07:21:43;;;;;;;;;;;;;;;17.51;48.53;101111.03;4960448;29;1160;-45
2023/10/10 07:24:15;;;;;;;;;;;;;;;17.01;50.09;101116.94;4951006;29;1813;-46
2023/10/10 07:26:44;;;;;;;;;;;;;;;16.84;50.24;101111.56;4959398;29;1923;-47
2023/10/10 07:29:30;;;;;;;;;;;;;;;16.75;50.68;101124.19;4947542;29;1148;-48
2023/10/10 07:32:07;;;;;;;;;;;;;;;17.86;48.20;101136.94;4946728;28;1212;-43
2023/10/10 07:34:35;;;;;;;;;;;;;;;17.19;49.78;101134.84;4952463;28;1184;-49
2023/10/10 07:37:07;;;;;;;;;;;;;;;16.96;50.14;101125.13;4955272;28;1145;-46
2023/10/10 07:39:33;;;;;;;;;;;;;;;16.83;50.45;101136.56;4959943;29;939;-46
2023/10/10 07:41:59;;;;;;;;;;;;;;;16.74;50.63;101128.00;4959791;28;1315;-45
2023/10/10 07:44:25;;;;;;;;;;;;;;;16.88;50.45;101139.34;4958887;28;1260;-45
2023/10/10 07:49:34;;;;;;;;;;;;;;;17.06;50.02;101129.84;4958813;29;1143;-46
2023/10/10 07:52:04;;;;;;;;;;;;;;;16.90;50.42;101132.53;4959553;28;1061;-45
2023/10/10 07:54:38;;;;;;;;;;;;;;;16.77;50.60;101135.72;4950384;28;1903;-43
2023/10/10 07:57:07;;;;;;;;;;;;;;;16.79;50.65;101132.69;4959637;29;1162;-48
2023/10/10 07:59:36;;;;;;;;;;;;;;;17.79;48.25;101137.19;4959156;28;1165;-46
2023/10/10 08:02:19;;;;;;;;;;;;;;;17.14;49.95;101145.81;4958807;28;1410;-47
2023/10/10 08:04:49;;;;;;;;;;;;;;;16.94;50.38;101149.28;4958985;28;1096;-44
2023/10/10 08:07:18;;;;;;;;;;;;;;;16.82;50.56;101149.47;4959413;29;1906;-46
2023/10/10 08:09:45;;;;;;;;;;;;;;;16.72;50.65;101144.75;4958657;29;1104;-47
2023/10/10 08:12:11;;;;;;;;;;;;;;;16.67;51.08;101154.88;4957669;29;976;-48
2023/10/10 08:14:39;;;;;;;;;;;;;;;17.87;48.17;101155.91;4959646;29;1084;-48
2023/10/10 08:17:18;;;;;;;;;;;;;;;17.21;49.60;101145.59;4957945;28;1147;-45
2023/10/10 08:19:53;;;;;;;;;;;;;;;16.95;50.22;101161.13;4958498;29;1212;-45
2023/10/10 08:22:19;;;;;;;;;;;;;;;16.82;50.95;101162.41;4958330;29;1209;-47
2023/10/10 08:24:45;;;;;;;;;;;;;;;16.69;50.92;101167.25;4957005;29;2224;-47
2023/10/10 08:27:11;;;;;;;;;;;;;;;17.87;48.61;101166.91;4944921;29;1910;-45
2023/10/10 08:29:38;;;;;;;;;;;;;;;17.28;49.97;101162.66;4944573;29;955;-47
2023/10/10 08:32:05;;;;;;;;;;;;;;;17.01;50.57;101158.13;4957745;28;1152;-46
2023/10/10 08:34:38;;;;;;;;;;;;;;;16.89;50.79;101158.34;4957053;28;1026;-44
2023/10/10 08:37:04;;;;;;;;;;;;;;;16.74;51.20;101164.53;4945447;29;999;-43
2023/10/10 08:39:35;;;;;;;;;;;;;;;16.63;51.25;101165.56;4958569;28;1307;-47
2023/10/10 08:42:14;;;;;;;;;;;;;;;16.73;51.38;101157.41;4957865;28;1263;-47
2023/10/10 08:44:40;;;;;;;;;;;;;;;17.65;48.96;101149.84;4958632;28;1330;-45
2023/10/10 08:47:06;;;;;;;;;;;;;;;17.07;50.54;101148.81;4951088;28;1915;-49
2023/10/10 08:49:32;;;;;;;;;;;;;;;16.86;51.03;101144.28;4958344;29;1291;-45
2023/10/10 08:52:01;;;;;;;;;;;;;;;16.79;50.88;101151.91;4957364;29;1026;-49
2023/10/10 08:54:26;;;;;;;;;;;;;;;16.69;51.28;101152.69;4953529;28;2215;-49
2023/10/10 08:57:02;;;;;;;;;;;;;;;16.61;51.50;101165.00;4957629;29;1120;-45
2023/10/10 08:59:29;;;;;;;;;;;;;;;17.69;49.00;101170.19;4958095;29;1124;-47
2023/10/10 09:01:55;;;;;;;;;;;;;;;17.24;49.78;101172.53;4958429;29;1068;-44
2023/10/10 09:04:21;;;;;;;;;;;;;;;16.93;50.83;101175.94;4957950;28;1283;-42
2023/10/10 09:09:40;;;;;;;;;;;;;;;17.41;49.59;101175.88;4936316;29;1412;-46
2023/10/10 09:12:12;;;;;;;;;;;;;;;17.05;50.41;101170.22;4951944;29;1092;-46
2023/10/10 09:14:41;;;;;;;;;;;;;;;16.86;51.01;101188.25;4950842;28;1235;-44
2023/10/10 09:17:10;;;;;;;;;;;;;;;16.81;50.75;101182.72;4953701;28;1503;-47
2023/10/10 09:19:43;;;;;;;;;;;;;;;16.70;51.19;101188.13;4951723;29;1464;-45
2023/10/10 09:22:25;;;;;;;;;;;;;;;17.42;49.70;101188.53;4956535;29;1270;-45
2023/10/10 09:24:55;;;;;;;;;;;;;;;17.32;49.71;101193.16;4953438;29;1769;-49
2023/10/10 09:27:28;;;;;;;;;;;;;;;16.99;50.70;101184.22;4955939;29;1914;-46
2023/10/10 09:29:56;;;;;;;;;;;;;;;16.81;50.96;101196.44;4959619;28;1126;-48
2023/10/10 09:32:35;;;;;;;;;;;;;;;16.72;51.07;101199.69;4957153;28;1260;-47
2023/10/10 09:35:01;;;;;;;;;;;;;;;17.87;48.75;101191.69;4954366;29;1115;-44
2023/10/10 09:37:30;;;;;;;;;;;;;;;17.27;50.18;101185.72;4956831;29;1058;-48
2023/10/10 09:39:55;;;;;;;;;;;;;;;17.01;50.91;101182.88;4954981;29;1324;-45
2023/10/10 09:48:17;;;;;;;;;;;;;;;16.81;51.40;101171.72;4920533;29;1994;-46
2023/10/10 09:51:07;;;;;;;;;;;;;;;17.61;49.11;101175.13;4957445;29;1025;-44
2023/10/10 09:53:32;;;;;;;;;;;;;;;17.02;50.64;101173.50;4946686;29;1834;-45
2023/10/10 09:56:01;;;;;;;;;;;;;;;16.86;51.02;101175.31;4956830;29;1201;-47
2023/10/10 09:58:27;;;;;;;;;;;;;;;16.79;51.34;101165.66;4957620;28;1041;-43
2023/10/10 10:00:53;;;;;;;;;;;;;;;16.66;51.34;101175.19;4955342;29;1192;-47
2023/10/10 10:06:01;;;;;;;;;;;;;;;17.19;50.44;101161.50;4957118;29;1029;-49
2023/10/10 10:08:38;;;;;;;;;;;;;;;16.92;51.06;101157.78;4946824;29;2269;-44
2023/10/10 10:11:22;;;;;;;;;;;;;;;16.76;51.19;101159.59;4955249;29;1090;-49
2023/10/10 10:14:12;;;;;;;;;;;;;;;16.69;51.33;101158.19;4957091;28;1084;-43
2023/10/10 10:16:47;;;;;;;;;;;;;;;17.87;48.73;101166.09;4955825;29;1189;-46
2023/10/10 10:19:19;;;;;;;;;;;;;;;17.25;50.33;101171.41;4957027;29;1076;-46
2023/10/10 10:22:06;;;;;;;;;;;;;;;17.00;50.98;101172.97;4945142;28;1157;-49
2023/10/10 10:25:09;;;;;;;;;;;;;;;16.82;51.19;101179.69;4955610;29;1813;-46
2023/10/10 10:27:35;;;;;;;;;;;;;;;16.72;51.21;101174.97;4948534;29;1972;-43
2023/10/10 10:30:35;;;;;;;;;;;;;;;16.66;51.37;101172.44;4957609;29;1136;-47
2023/10/10 10:32:58;;;;;;;;;;;;;;;17.78;49.11;101179.56;4957220;29;1197;-48
2023/10/10 10:35:47;;;;;;;;;;;;;;;17.12;50.52;101174.66;4945619;28;1203;-45
2023/10/10 10:38:13;;;;;;;;;;;;;;;16.86;51.05;101169.81;4948292;28;1874;-47
2023/10/10 10:43:16;;;;;;;;;;;;;;;16.74;51.21;101167.28;4955572;28;1108;-45
2023/10/10 10:45:44;;;;;;;;;;;;;;;16.86;51.09;101174.50;4953368;28;1092;-46
2023/10/10 10:48:29;;;;;;;;;;;;;;;17.60;49.40;101172.66;4946014;28;1915;-47
2023/10/10 10:51:00;;;;;;;;;;;;;;;17.05;50.60;101170.22;4956815;29;1114;-47
2023/10/10 10:53:31;;;;;;;;;;;;;;;16.89;51.10;101185.00;4948946;28;2432;-47
2023/10/10 10:56:37;;;;;;;;;;;;;;;16.74;51.40;101177.44;4955006;28;1520;-44
2023/10/10 11:01:21;;;;;;;;;;;;;;;17.72;49.51;101186.97;4957535;28;1203;-42
2023/10/10 11:03:49;;;;;;;;;;;;;;;17.10;50.97;101175.75;4963241;28;1255;-44
2023/10/10 11:06:20;;;;;;;;;;;;;;;16.92;51.47;101184.44;4954907;28;1176;-45
2023/10/10 11:08:52;;;;;;;;;;;;;;;16.79;51.63;101184.88;4956474;28;1969;-45
2023/10/10 11:16:45;;;;;;;;;;;;;;;17.10;50.98;101186.75;4959857;29;1244;-47
2023/10/10 11:21:49;;;;;;;;;;;;;;;16.81;51.60;101196.44;4966189;28;1256;-44
2023/10/10 11:24:15;;;;;;;;;;;;;;;16.70;51.85;101179.88;4961975;28;1836;-47
2023/10/10 11:26:43;;;;;;;;;;;;;;;16.61;51.93;101197.94;4959364;28;1272;-47
2023/10/10 11:29:27;;;;;;;;;;;;;;;17.47;50.39;101201.47;4959149;28;1902;-47
2023/10/10 11:32:08;;;;;;;;;;;;;;;17.29;50.65;101213.75;4956818;28;1278;-46
2023/10/10 11:34:42;;;;;;;;;;;;;;;16.96;51.40;101193.81;4960057;28;1307;-49
2023/10/10 11:37:12;;;;;;;;;;;;;;;16.84;51.88;101198.66;4957957;28;1088;-47
2023/10/10 11:39:46;;;;;;;;;;;;;;;16.69;52.03;101196.63;4956386;29;1182;-45
2023/10/10 11:42:22;;;;;;;;;;;;;;;17.23;51.05;101195.59;4959343;28;1196;-43
2023/10/10 11:44:51;;;;;;;;;;;;;;;17.51;50.05;101202.56;4959099;28;1240;-43
2023/10/10 11:47:24;;;;;;;;;;;;;;;17.06;51.17;101193.88;4959020;28;1899;-47
2023/10/10 11:50:00;;;;;;;;;;;;;;;16.89;51.74;101201.47;4957382;29;1244;-47
2023/10/10 11:52:29;;;;;;;;;;;;;;;16.79;51.93;101195.84;4958922;28;1326;-46
2023/10/10 11:54:55;;;;;;;;;;;;;;;16.66;52.15;101198.00;4957363;29;1854;-43
2023/10/10 11:57:21;;;;;;;;;;;;;;;17.80;49.69;101199.38;4959447;29;1255;-43
2023/10/10 11:59:47;;;;;;;;;;;;;;;17.29;50.56;101200.00;4959374;29;1069;-48
2023/10/10 12:02:18;;;;;;;;;;;;;;;17.01;51.30;101204.00;4956051;28;1264;-47
2023/10/10 12:04:44;;;;;;;;;;;;;;;16.84;51.77;101204.13;4957380;29;977;-47
2023/10/10 12:07:13;;;;;;;;;;;;;;;16.73;51.92;101198.59;4954193;29;1989;-46
2023/10/10 12:09:44;;;;;;;;;;;;;;;16.62;51.88;101191.38;4949498;29;1189;-43
2023/10/10 12:12:10;;;;;;;;;;;;;;;16.78;51.88;101197.78;4958319;28;1112;-47
2023/10/10 12:14:35;;;;;;;;;;;;;;;17.62;49.90;101204.25;4967345;28;1334;-48
2023/10/10 12:17:05;;;;;;;;;;;;;;;17.05;51.13;101199.63;4959248;29;1196;-45
2023/10/10 12:19:36;;;;;;;;;;;;;;;16.88;51.49;101208.00;4940133;29;1046;-47
2023/10/10 12:22:07;;;;;;;;;;;;;;;16.77;51.57;101207.13;4952823;28;1093;-44
2023/10/10 12:24:36;;;;;;;;;;;;;;;16.68;51.74;101208.72;4954146;29;2551;-42
2023/10/10 12:27:06;;;;;;;;;;;;;;;17.68;50.04;101207.84;4957545;29;1910;-44
2023/10/10 12:29:33;;;;;;;;;;;;;;;17.30;50.43;101209.09;4958733;28;1267;-46
2023/10/10 12:31:58;;;;;;;;;;;;;;;17.03;51.26;101210.06;4956829;28;1050;-44
2023/10/10 12:34:24;;;;;;;;;;;;;;;16.87;51.76;101215.44;4958355;29;1556;-45
2023/10/10 12:36:50;;;;;;;;;;;;;;;16.80;51.75;101211.25;4956257;28;1295;-46
2023/10/10 12:39:16;;;;;;;;;;;;;;;16.68;51.75;101219.69;4964613;28;1062;-42
2023/10/10 12:41:47;;;;;;;;;;;;;;;16.77;51.93;101215.34;4954581;28;1204;-45
2023/10/10 12:44:13;;;;;;;;;;;;;;;17.61;49.73;101223.78;4958981;28;1149;-48
2023/10/10 12:46:40;;;;;;;;;;;;;;;17.10;51.11;101207.91;4958443;29;1440;-43
2023/10/10 12:49:06;;;;;;;;;;;;;;;16.85;51.77;101216.78;4951726;29;1997;-46
2023/10/10 12:51:31;;;;;;;;;;;;;;;16.77;51.90;101209.84;4958361;29;1144;-48
2023/10/10 12:54:05;;;;;;;;;;;;;;;17.31;50.88;101208.00;4952828;29;2362;-42
2023/10/10 12:56:38;;;;;;;;;;;;;;;17.47;50.15;101211.66;4958410;29;1028;-44
2023/10/10 12:59:04;;;;;;;;;;;;;;;17.05;51.02;101211.44;4949461;29;1303;-46
2023/10/10 13:01:32;;;;;;;;;;;;;;;16.88;51.42;101210.75;4948019;28;1272;-42
2023/10/10 13:03:59;;;;;;;;;;;;;;;16.75;51.65;101207.38;4957095;29;1211;-47
2023/10/10 13:06:25;;;;;;;;;;;;;;;16.71;51.97;101209.00;4958521;29;1052;-43
2023/10/10 13:11:19;;;;;;;;;;;;;;;17.14;50.69;101203.53;4950342;28;1098;-43
2023/10/10 13:13:45;;;;;;;;;;;;;;;16.97;51.15;101214.72;4958000;29;1139;-43
2023/10/10 13:18:54;;;;;;;;;;;;;;;16.68;51.79;101214.22;4951826;29;1088;-44
2023/10/10 13:21:19;;;;;;;;;;;;;;;16.86;51.72;101221.19;4957587;29;1037;-40
2023/10/10 13:23:48;;;;;;;;;;;;;;;17.67;49.48;101208.97;4957620;28;2396;-45
2023/10/10 13:26:13;;;;;;;;;;;;;;;17.14;50.74;101216.44;4955745;28;1263;-42
2023/10/10 13:28:44;;;;;;;;;;;;;;;16.93;51.44;101225.38;4957798;29;1980;-46
2023/10/10 13:31:11;;;;;;;;;;;;;;;16.72;51.71;101213.41;4957199;29;1315;-45
2023/10/10 13:33:39;;;;;;;;;;;;;;;16.66;51.78;101219.97;4956788;28;1284;-44
2023/10/10 13:36:05;;;;;;;;;;;;;;;17.48;50.07;101229.81;4972893;28;1460;-47
2023/10/10 13:38:30;;;;;;;;;;;;;;;17.43;50.24;101236.94;4947740;28;1274;-45
2023/10/10 13:41:02;;;;;;;;;;;;;;;17.04;50.97;101226.28;4957403;28;1484;-43
2023/10/10 13:43:27;;;;;;;;;;;;;;;16.79;51.54;101229.66;4957277;28;1298;-45
2023/10/10 13:45:55;;;;;;;;;;;;;;;16.72;51.79;101226.31;4959504;28;1259;-43
2023/10/10 13:48:23;;;;;;;;;;;;;;;17.82;49.24;101232.13;4964120;28;1890;-43
2023/10/10 13:50:54;;;;;;;;;;;;;;;17.26;50.38;101228.03;4945766;28;1322;-43
2023/10/10 13:53:20;;;;;;;;;;;;;;;16.96;51.30;101221.28;4957012;29;2299;-44
2023/10/10 13:55:46;;;;;;;;;;;;;;;16.86;51.35;101229.44;4957233;28;1144;-43
2023/10/10 13:58:12;;;;;;;;;;;;;;;16.74;51.44;101233.19;4956348;28;1171;-42
2023/10/10 14:00:39;;;;;;;;;;;;;;;17.50;50.21;101233.09;4945576;29;1153;-40
2023/10/10 14:03:04;;;;;;;;;;;;;;;17.40;50.00;101234.72;4955706;29;992;-45
2023/10/10 14:05:36;;;;;;;;;;;;;;;17.04;51.09;101242.78;4956583;29;1268;-46
2023/10/10 14:08:17;;;;;;;;;;;;;;;16.89;51.28;101237.19;4956633;29;1906;-48
2023/10/10 14:10:43;;;;;;;;;;;;;;;16.72;51.48;101238.13;4954927;29;1157;-45
2023/10/10 14:13:21;;;;;;;;;;;;;;;16.71;51.62;101244.69;4955766;29;1292;-48
2023/10/10 14:15:54;;;;;;;;;;;;;;;17.72;49.08;101254.91;4955428;29;1098;-46
2023/10/10 14:18:41;;;;;;;;;;;;;;;17.04;50.70;101244.66;4955435;29;1143;-45
2023/10/10 14:21:08;;;;;;;;;;;;;;;16.88;51.12;101251.97;4949751;29;1088;-45
2023/10/10 14:23:35;;;;;;;;;;;;;;;16.77;51.50;101253.78;4952639;29;2454;-45
2023/10/10 14:26:13;;;;;;;;;;;;;;;16.60;51.74;101264.94;4950744;29;1105;-41
2023/10/10 14:28:41;;;;;;;;;;;;;;;17.13;50.81;101267.00;4949218;29;1965;-41
2023/10/10 14:31:11;;;;;;;;;;;;;;;17.50;49.68;101264.19;4957037;29;1096;-40
2023/10/10 14:33:39;;;;;;;;;;;;;;;17.07;50.58;101266.97;4950721;29;1156;-45
2023/10/10 14:36:05;;;;;;;;;;;;;;;16.84;51.20;101273.63;4948391;29;1080;-44
2023/10/10 14:38:31;;;;;;;;;;;;;;;17.34;50.17;101285.25;4946119;28;1159;-41
2023/10/10 14:40:57;;;;;;;;;;;;;;;17.58;49.20;101284.81;4956522;28;1209;-45
2023/10/10 14:43:22;;;;;;;;;;;;;;;17.14;50.34;101291.47;4956931;28;1116;-42
2023/10/10 14:45:48;;;;;;;;;;;;;;;16.92;50.89;101294.31;4961209;29;1061;-46
2023/10/10 14:48:23;;;;;;;;;;;;;;;16.83;50.89;101304.09;4960030;29;1991;-41
2023/10/10 14:50:55;;;;;;;;;;;;;;;17.53;49.57;101298.53;4958722;29;1205;-40
2023/10/10 14:53:22;;;;;;;;;;;;;;;17.46;49.40;101298.81;4958354;28;2374;-47
2023/10/10 14:55:51;;;;;;;;;;;;;;;17.09;50.21;101308.72;4960077;28;1189;-43
2023/10/10 14:58:18;;;;;;;;;;;;;;;16.86;50.58;101309.91;4959756;29;1225;-44
2023/10/10 15:00:47;;;;;;;;;;;;;;;16.77;50.82;101317.81;4960151;29;1177;-42
2023/10/10 15:03:13;;;;;;;;;;;;;;;16.69;50.94;101318.28;4959756;28;1197;-45
2023/10/10 15:05:49;;;;;;;;;;;;;;;17.72;48.59;101324.50;4960060;29;1244;-43
2023/10/10 15:08:15;;;;;;;;;;;;;;;17.12;49.99;101323.88;4960313;29;1914;-44
2023/10/10 15:10:40;;;;;;;;;;;;;;;16.89;50.56;101327.81;4960670;29;1132;-48
2023/10/10 15:13:08;;;;;;;;;;;;;;;16.74;50.82;101334.78;4958689;29;1492;-43
2023/10/10 15:15:34;;;;;;;;;;;;;;;16.66;51.00;101340.78;4941894;29;855;-46
2023/10/10 15:18:00;;;;;;;;;;;;;;;17.39;49.55;101342.19;4953386;29;1077;-43
2023/10/10 15:20:29;;;;;;;;;;;;;;;17.48;49.13;101342.53;4953760;29;1083;-44
2023/10/10 15:22:55;;;;;;;;;;;;;;;17.03;50.05;101351.00;4959533;28;1070;-42
2023/10/10 15:25:23;;;;;;;;;;;;;;;16.83;50.48;101353.53;4959692;28;2437;-44
2023/10/10 15:27:49;;;;;;;;;;;;;;;17.59;48.84;101356.06;4957625;29;1985;-42
2023/10/10 15:30:15;;;;;;;;;;;;;;;17.48;48.71;101359.03;4960008;29;1307;-45
2023/10/10 15:32:46;;;;;;;;;;;;;;;17.12;50.00;101369.75;4951603;28;1133;-45
2023/10/10 15:35:12;;;;;;;;;;;;;;;16.90;50.19;101376.16;4956401;29;1085;-47
2023/10/10 15:37:44;;;;;;;;;;;;;;;16.77;50.58;101386.47;4958758;29;1118;-47
2023/10/10 15:40:13;;;;;;;;;;;;;;;16.71;50.67;101392.97;4953907;29;1056;-44
2023/10/10 15:42:47;;;;;;;;;;;;;;;17.03;50.28;101386.72;4953365;29;1079;-48
2023/10/10 15:45:20;;;;;;;;;;;;;;;17.50;48.49;101393.41;4954445;29;1107;-46